Time;durP1;ratioP1;P1;durP2;ratioP2;P2;SDS_P1;SDS_P2;PMS_P1;PMS_P2;Temp;Humidity;BMP_temperature;BMP_pressure;BME280_temperature;BME280_humidity;BME280_pressure;Samples;Min_cycle;Max_cycle;Signal;HPM_P1;HPM_P2
2022/05/28 00:00:17;;;;;;;8.80;1.92;;;9.80;99.90;;;;;;4892120;29;20033;-55
2022/05/28 00:02:44;;;;;;;85.32;77.53;;;9.80;99.90;;;;;;4894076;29;20096;-57
2022/05/28 00:05:10;;;;;;;9.18;3.13;;;9.70;99.90;;;;;;4890719;29;20061;-57
2022/05/28 00:07:35;;;;;;;5.35;4.10;;;9.70;99.90;;;;;;4892016;29;20389;-56
2022/05/28 00:10:01;;;;;;;8.90;2.30;;;9.70;99.90;;;;;;4892457;29;20036;-57
2022/05/28 00:12:30;;;;;;;81.57;73.70;;;9.60;99.90;;;;;;4891873;29;20027;-58
2022/05/28 00:14:57;;;;;;;8.43;3.22;;;9.70;99.90;;;;;;4875513;29;20032;-57
2022/05/28 00:17:24;;;;;;;9.95;2.50;;;9.70;99.90;;;;;;4892259;29;20024;-57
2022/05/28 00:19:50;;;;;;;12.55;2.42;;;9.70;99.90;;;;;;4878039;29;20029;-58
2022/05/28 00:22:16;;;;;;;12.15;2.95;;;9.70;99.90;;;;;;4890161;29;20033;-57
2022/05/28 00:24:42;;;;;;;14.70;2.28;;;9.70;99.90;;;;;;4892329;29;20084;-57
2022/05/28 00:27:07;;;;;;;10.20;2.25;;;9.70;99.90;;;;;;4892148;29;20032;-57
2022/05/28 00:29:34;;;;;;;10.85;1.85;;;9.70;99.90;;;;;;4891289;29;20089;-55
2022/05/28 00:31:59;;;;;;;10.38;2.75;;;9.70;99.90;;;;;;4892750;29;20477;-58
2022/05/28 00:34:27;;;;;;;7.20;2.90;;;9.70;99.90;;;;;;4892357;29;20164;-57
2022/05/28 00:36:53;;;;;;;13.93;7.63;;;9.70;99.90;;;;;;4894119;29;20025;-57
2022/05/28 00:39:18;;;;;;;14.88;7.43;;;9.70;99.90;;;;;;4891108;29;20043;-57
2022/05/28 00:41:44;;;;;;;11.55;3.78;;;9.60;99.90;;;;;;4892430;29;20036;-57
2022/05/28 00:44:10;;;;;;;29.38;27.08;;;9.60;99.90;;;;;;4892900;29;20032;-58
2022/05/28 00:46:36;;;;;;;11.95;2.30;;;9.70;99.90;;;;;;4890044;29;20048;-57
2022/05/28 00:49:07;;;;;;;6.75;1.88;;;9.70;99.90;;;;;;4891540;29;20042;-56
2022/05/28 00:51:37;;;;;;;5.03;1.85;;;9.70;99.90;;;;;;4876130;29;20540;-56
2022/05/28 00:54:04;;;;;;;;;;;9.70;99.90;;;;;;4891712;29;20040;-56
2022/05/28 00:56:30;;;;;;;3.30;1.30;;;9.80;99.90;;;;;;4890725;29;19918;-57
2022/05/28 00:58:56;;;;;;;10.60;2.08;;;9.80;99.90;;;;;;4890987;29;20028;-56
2022/05/28 01:01:25;;;;;;;11.30;2.80;;;9.70;99.90;;;;;;4890465;29;20031;-57
2022/05/28 01:03:57;;;;;;;12.67;2.97;;;9.80;99.90;;;;;;4889330;29;20056;-56
2022/05/28 01:06:52;;;;;;;543.33;486.27;;;9.70;99.90;;;;;;4890545;29;20265;-57
2022/05/28 01:09:30;;;;;;;334.80;310.60;;;9.70;99.90;;;;;;4883628;29;20051;-56
2022/05/28 01:12:14;;;;;;;45.25;41.47;;;9.70;99.90;;;;;;4888837;29;20035;-57
2022/05/28 01:14:48;;;;;;;73.30;67.82;;;9.70;99.90;;;;;;4889672;29;20032;-56
2022/05/28 01:17:21;;;;;;;16.65;15.02;;;9.70;99.90;;;;;;4894937;29;20063;-57
2022/05/28 01:20:15;;;;;;;88.60;82.28;;;9.70;99.90;;;;;;4891468;29;20056;-56
2022/05/28 01:23:02;;;;;;;10.95;2.25;;;9.70;99.90;;;;;;4884893;29;20392;-57
2022/05/28 01:25:40;;;;;;;7.40;2.22;;;9.70;99.90;;;;;;4890514;29;20036;-56
2022/05/28 01:28:10;;;;;;;13.93;2.45;;;9.60;99.90;;;;;;4891035;29;20043;-56
2022/05/28 01:30:38;;;;;;;;;;;9.70;99.90;;;;;;4890708;29;20032;-57
2022/05/28 01:33:04;;;;;;;11.57;2.72;;;9.70;99.90;;;;;;4889389;29;19915;-57
2022/05/28 01:35:32;;;;;;;12.18;2.78;;;9.60;99.90;;;;;;4886987;29;20500;-56
2022/05/28 01:37:59;;;;;;;11.75;2.42;;;9.60;99.90;;;;;;4879301;29;20115;-56
2022/05/28 01:40:26;;;;;;;19.15;3.22;;;9.50;99.90;;;;;;4890678;29;20433;-55
2022/05/28 01:42:55;;;;;;;10.38;2.30;;;9.60;99.90;;;;;;4890977;29;20040;-57
2022/05/28 01:45:26;;;;;;;14.60;3.47;;;9.60;99.90;;;;;;4890397;29;20613;-56
2022/05/28 01:47:54;;;;;;;13.40;2.85;;;9.60;99.90;;;;;;4889407;29;20544;-56
2022/05/28 01:50:23;;;;;;;16.25;3.47;;;9.60;99.90;;;;;;4890459;29;20050;-56
2022/05/28 01:52:50;;;;;;;14.70;3.20;;;9.50;99.90;;;;;;4891701;29;20051;-56
2022/05/28 01:55:18;;;;;;;9.80;2.55;;;9.40;99.90;;;;;;4893622;29;20017;-56
2022/05/28 01:57:45;;;;;;;6.45;2.05;;;9.50;99.90;;;;;;4894471;29;20120;-57
2022/05/28 02:00:11;;;;;;;87.25;80.75;;;9.60;99.90;;;;;;4889963;29;20024;-56
2022/05/28 02:02:37;;;;;;;10.23;2.85;;;9.80;99.90;;;;;;4894026;29;20035;-57
2022/05/28 02:05:04;;;;;;;9.43;2.33;;;9.80;99.90;;;;;;4893427;29;20086;-57
2022/05/28 02:07:29;;;;;;;14.80;2.65;;;9.80;99.90;;;;;;4894308;29;20732;-56
2022/05/28 02:10:02;;;;;;;17.52;3.03;;;9.60;99.90;;;;;;4894507;29;20063;-56
2022/05/28 02:12:56;;;;;;;11.05;2.78;;;9.60;99.90;;;;;;4894082;29;20037;-56
2022/05/28 02:15:47;;;;;;;8.88;3.67;;;9.50;99.90;;;;;;4890347;29;20396;-56
2022/05/28 02:18:56;;;;;;;78.55;72.57;;;9.50;99.90;;;;;;4889273;29;20579;-56
2022/05/28 02:21:54;;;;;;;205.43;175.18;;;9.40;99.90;;;;;;4892978;29;20032;-56
2022/05/28 02:24:25;;;;;;;68.65;61.72;;;9.40;99.90;;;;;;4883661;29;20694;-57
2022/05/28 02:26:55;;;;;;;8.65;3.03;;;9.40;99.90;;;;;;4893739;29;20555;-56
2022/05/28 02:29:21;;;;;;;7.53;2.22;;;9.40;99.90;;;;;;4893678;29;20040;-56
2022/05/28 02:31:49;;;;;;;7.95;2.20;;;9.40;99.90;;;;;;4877375;29;20060;-57
2022/05/28 02:34:15;;;;;;;6.75;1.77;;;9.40;99.90;;;;;;4892973;29;20495;-56
2022/05/28 02:36:41;;;;;;;14.30;2.63;;;9.50;99.90;;;;;;4895483;29;20024;-56
2022/05/28 02:39:07;;;;;;;9.90;3.10;;;9.50;99.90;;;;;;4895119;29;20035;-56
2022/05/28 02:41:33;;;;;;;6.10;2.10;;;9.40;99.90;;;;;;4893155;29;20028;-56
2022/05/28 02:43:58;;;;;;;16.50;3.53;;;9.40;99.90;;;;;;4894316;29;20489;-57
2022/05/28 02:46:24;;;;;;;14.85;3.10;;;9.40;99.90;;;;;;4893403;29;20441;-56
2022/05/28 02:48:50;;;;;;;10.52;2.53;;;9.40;99.90;;;;;;4893339;29;20070;-57
2022/05/28 02:51:19;;;;;;;7.32;2.45;;;9.40;99.90;;;;;;4893508;29;20087;-56
2022/05/28 02:53:46;;;;;;;24.30;13.43;;;9.40;99.90;;;;;;4893129;29;20032;-57
2022/05/28 02:56:12;;;;;;;17.95;3.33;;;9.50;99.90;;;;;;4893304;29;20056;-57
2022/05/28 02:58:38;;;;;;;15.93;3.05;;;9.50;99.90;;;;;;4892699;29;20067;-57
2022/05/28 03:01:17;;;;;;;11.90;2.90;;;9.50;99.90;;;;;;4893303;29;20036;-57
2022/05/28 03:03:43;;;;;;;9.85;2.35;;;9.60;99.90;;;;;;4890890;29;20108;-57
2022/05/28 03:06:08;;;;;;;14.77;2.80;;;9.60;99.90;;;;;;4893012;29;20036;-56
2022/05/28 03:08:34;;;;;;;10.48;2.97;;;9.70;99.90;;;;;;4891328;29;20036;-56
2022/05/28 03:11:00;;;;;;;15.15;3.17;;;9.70;99.90;;;;;;4893043;29;20029;-56
2022/05/28 03:13:25;;;;;;;7.10;2.35;;;9.80;99.90;;;;;;4892450;29;20848;-56
2022/05/28 03:15:51;;;;;;;12.80;2.88;;;9.90;99.90;;;;;;4894888;29;20025;-57
2022/05/28 03:18:16;;;;;;;10.82;3.17;;;10.00;99.90;;;;;;4896889;29;20489;-56
2022/05/28 03:20:42;;;;;;;17.85;3.03;;;10.00;99.90;;;;;;4892459;29;20498;-56
2022/05/28 03:23:08;;;;;;;15.20;4.03;;;10.00;99.90;;;;;;4892813;29;20036;-57
2022/05/28 03:25:33;;;;;;;7.05;2.17;;;10.10;99.90;;;;;;4893279;29;20489;-57
2022/05/28 03:27:59;;;;;;;11.20;3.10;;;10.10;99.90;;;;;;4892382;29;20571;-57
2022/05/28 03:30:25;;;;;;;12.32;3.03;;;10.10;99.90;;;;;;4892274;29;20657;-56
2022/05/28 03:32:50;;;;;;;9.30;2.63;;;10.10;99.90;;;;;;4892361;29;20040;-56
2022/05/28 03:35:16;;;;;;;7.55;2.17;;;10.00;99.90;;;;;;4890248;29;20096;-56
2022/05/28 03:37:42;;;;;;;11.93;3.08;;;9.90;99.90;;;;;;4891348;29;20056;-56
2022/05/28 03:40:08;;;;;;;12.20;3.70;;;9.80;99.90;;;;;;4891642;29;20040;-57
2022/05/28 03:42:34;;;;;;;14.57;3.33;;;9.80;99.90;;;;;;4890870;29;20518;-56
2022/05/28 03:44:59;;;;;;;14.65;3.10;;;9.70;99.90;;;;;;4891677;29;20060;-57
2022/05/28 03:47:25;;;;;;;11.73;3.08;;;9.70;99.90;;;;;;4887381;29;20036;-56
2022/05/28 03:49:50;;;;;;;15.63;3.55;;;9.60;99.90;;;;;;4891892;29;20147;-57
2022/05/28 03:52:16;;;;;;;15.13;5.90;;;9.60;99.90;;;;;;4892533;29;20548;-57
2022/05/28 03:54:45;;;;;;;43.70;34.05;;;9.70;99.90;;;;;;4892446;29;20021;-57
2022/05/28 03:57:23;;;;;;;16.65;11.20;;;9.80;99.90;;;;;;4895048;29;20544;-57
2022/05/28 03:59:48;;;;;;;11.88;2.72;;;9.90;99.90;;;;;;4890510;29;20856;-56
2022/05/28 04:02:14;;;;;;;11.60;2.88;;;10.10;99.90;;;;;;4892161;29;20123;-56
2022/05/28 04:04:40;;;;;;;90.50;83.45;;;10.10;99.90;;;;;;4889794;29;20075;-57
2022/05/28 04:07:06;;;;;;;9.52;2.20;;;10.20;99.90;;;;;;4876873;29;20448;-57
2022/05/28 04:09:32;;;;;;;18.70;15.80;;;10.30;99.90;;;;;;4891461;29;20028;-56
2022/05/28 04:11:57;;;;;;;183.13;170.20;;;10.30;99.90;;;;;;4892765;29;20394;-56
2022/05/28 04:14:23;;;;;;;9.52;2.75;;;10.40;99.90;;;;;;4892398;29;20161;-56
2022/05/28 04:16:49;;;;;;;11.45;2.80;;;10.50;99.90;;;;;;4893308;29;20029;-56
2022/05/28 04:19:14;;;;;;;11.43;2.65;;;10.40;99.90;;;;;;4891902;29;20477;-57
2022/05/28 04:21:40;;;;;;;10.68;2.17;;;10.50;99.90;;;;;;4891996;29;20032;-56
2022/05/28 04:24:06;;;;;;;13.93;3.25;;;10.50;99.90;;;;;;4892200;29;20501;-57
2022/05/28 04:26:32;;;;;;;13.02;2.70;;;10.50;99.90;;;;;;4891707;29;20032;-56
2022/05/28 04:28:58;;;;;;;11.32;2.47;;;10.50;99.90;;;;;;4892038;29;20043;-56
2022/05/28 04:31:24;;;;;;;40.53;37.13;;;10.60;99.90;;;;;;4892093;29;20036;-56
2022/05/28 04:33:50;;;;;;;11.77;2.67;;;10.60;99.90;;;;;;4889758;29;20025;-56
2022/05/28 04:36:15;;;;;;;10.20;3.10;;;10.60;99.90;;;;;;4893464;29;20103;-56
2022/05/28 04:38:41;;;;;;;13.95;3.15;;;10.70;99.90;;;;;;4893858;29;20032;-56
2022/05/28 04:41:07;;;;;;;9.48;2.75;;;10.70;99.90;;;;;;4892966;29;20028;-57
2022/05/28 04:43:33;;;;;;;20.40;5.40;;;10.80;99.90;;;;;;4891492;29;20037;-57
2022/05/28 04:45:59;;;;;;;10.63;2.35;;;10.90;99.90;;;;;;4892492;29;20039;-56
2022/05/28 04:48:24;;;;;;;12.55;3.28;;;10.90;99.90;;;;;;4892258;29;20032;-56
2022/05/28 04:50:50;;;;;;;9.82;2.88;;;11.00;99.90;;;;;;4877214;29;20033;-56
2022/05/28 04:53:15;;;;;;;6.43;2.47;;;11.10;99.90;;;;;;4891315;29;20043;-56
2022/05/28 04:55:41;;;;;;;7.10;2.42;;;11.00;99.90;;;;;;4891386;29;20043;-56
2022/05/28 04:58:11;;;;;;;243.13;223.40;;;11.10;99.90;;;;;;4887786;29;20032;-57
2022/05/28 05:00:36;;;;;;;9.40;3.20;;;11.10;99.90;;;;;;4891380;29;20039;-57
2022/05/28 05:03:02;;;;;;;62.85;57.53;;;11.10;99.90;;;;;;4868195;29;20029;-57
2022/05/28 05:05:28;;;;;;;121.55;108.72;;;10.90;99.90;;;;;;4890837;29;20056;-57
2022/05/28 05:07:53;;;;;;;9.20;3.10;;;10.90;99.90;;;;;;4890556;29;20039;-56
2022/05/28 05:10:19;;;;;;;7.03;2.25;;;11.00;99.90;;;;;;4891101;29;20036;-56
2022/05/28 05:12:44;;;;;;;9.80;2.25;;;11.20;99.90;;;;;;4890105;29;20071;-57
2022/05/28 05:15:11;;;;;;;10.05;2.95;;;11.40;99.90;;;;;;4891277;29;20839;-57
2022/05/28 05:17:37;;;;;;;7.13;1.88;;;11.40;99.90;;;;;;4894175;29;20444;-57
2022/05/28 05:20:03;;;;;;;7.50;2.50;;;11.50;99.90;;;;;;4893755;29;20113;-57
2022/05/28 05:22:28;;;;;;;27.40;24.75;;;11.50;99.90;;;;;;4891246;29;20036;-56
2022/05/28 05:24:54;;;;;;;10.02;2.20;;;11.60;99.90;;;;;;4890767;29;20044;-57
2022/05/28 05:27:20;;;;;;;5.80;2.00;;;11.60;99.90;;;;;;4892942;29;20029;-57
2022/05/28 05:29:46;;;;;;;7.82;2.28;;;11.70;99.90;;;;;;4890809;29;20056;-56
2022/05/28 05:32:11;;;;;;;8.07;1.90;;;11.70;99.90;;;;;;4892563;29;20043;-56
2022/05/28 05:34:37;;;;;;;15.93;2.22;;;11.50;99.90;;;;;;4892839;29;20400;-57
2022/05/28 05:37:04;;;;;;;8.38;2.17;;;11.60;99.90;;;;;;4894830;29;20032;-57
2022/05/28 05:39:30;;;;;;;13.60;2.50;;;11.60;99.90;;;;;;4895270;29;20143;-56
2022/05/28 05:41:56;;;;;;;7.53;2.20;;;11.60;99.90;;;;;;4894353;29;20036;-56
2022/05/28 05:44:22;;;;;;;4.00;1.40;;;11.80;99.90;;;;;;4895398;29;20025;-56
2022/05/28 05:46:48;;;;;;;8.18;2.40;;;11.90;99.90;;;;;;4894449;29;20063;-56
2022/05/28 05:49:14;;;;;;;10.10;5.82;;;11.80;99.90;;;;;;4895157;29;20033;-57
2022/05/28 05:51:46;;;;;;;174.75;155.95;;;11.90;99.90;;;;;;4893937;29;20085;-57
2022/05/28 05:54:14;;;;;;;7.60;2.00;;;11.60;99.90;;;;;;4876119;29;20482;-56
2022/05/28 05:56:40;;;;;;;9.90;2.53;;;11.70;99.90;;;;;;4894847;29;20087;-56
2022/05/28 05:59:05;;;;;;;10.93;2.05;;;11.70;99.90;;;;;;4895240;29;20033;-57
2022/05/28 06:01:31;;;;;;;7.15;1.70;;;11.50;99.90;;;;;;4888527;29;20041;-57
2022/05/28 06:03:57;;;;;;;11.35;2.08;;;11.60;99.90;;;;;;4892313;29;20473;-57
2022/05/28 06:06:23;;;;;;;12.20;2.13;;;11.80;99.90;;;;;;4894834;29;20062;-57
2022/05/28 06:08:48;;;;;;;9.40;2.13;;;11.90;99.90;;;;;;4893501;29;20116;-57
2022/05/28 06:11:14;;;;;;;9.27;1.55;;;11.80;99.90;;;;;;4894702;29;20029;-57
2022/05/28 06:13:39;;;;;;;8.65;1.20;;;11.90;99.90;;;;;;4893771;29;20037;-56
2022/05/28 06:16:05;;;;;;;7.65;1.60;;;11.90;99.90;;;;;;4894411;29;20028;-56
2022/05/28 06:18:31;;;;;;;8.30;1.70;;;11.90;99.90;;;;;;4895782;29;20146;-56
2022/05/28 06:20:59;;;;;;;9.88;1.60;;;12.00;99.90;;;;;;4893436;29;20043;-56
2022/05/28 06:23:25;;;;;;;10.10;1.60;;;11.80;99.90;;;;;;4894422;29;20066;-56
2022/05/28 06:25:50;;;;;;;7.55;1.80;;;11.90;99.90;;;;;;4893462;29;20060;-57
2022/05/28 06:28:16;;;;;;;8.00;1.40;;;11.90;99.90;;;;;;4894154;29;20087;-56
2022/05/28 06:30:44;;;;;;;4.13;1.10;;;12.10;99.90;;;;;;4876789;29;20033;-57
2022/05/28 06:33:11;;;;;;;19.45;1.50;;;12.00;99.90;;;;;;4891930;29;20048;-57
2022/05/28 06:35:36;;;;;;;5.20;1.33;;;11.90;99.90;;;;;;4894265;29;20037;-57
2022/05/28 06:38:02;;;;;;;6.45;1.52;;;12.00;99.90;;;;;;4895420;29;20108;-56
2022/05/28 06:40:28;;;;;;;8.80;1.88;;;12.10;99.90;;;;;;4896448;29;20039;-56
2022/05/28 06:42:56;;;;;;;3.55;1.20;;;12.00;99.90;;;;;;4894410;29;20045;-57
2022/05/28 06:45:22;;;;;;;8.90;2.42;;;12.10;99.90;;;;;;4879828;29;20036;-56
2022/05/28 06:47:48;;;;;;;9.30;1.77;;;12.10;99.90;;;;;;4893640;29;20469;-56
2022/05/28 06:53:00;;;;;;;4.25;1.20;;;12.10;99.90;;;;;;4890121;29;20040;-56
2022/05/28 06:55:26;;;;;;;7.82;1.70;;;12.50;99.90;;;;;;4894068;29;20460;-56
2022/05/28 06:57:52;;;;;;;3.92;1.17;;;12.70;99.90;;;;;;4893074;29;20028;-56
2022/05/28 07:00:18;;;;;;;27.13;24.10;;;12.70;99.90;;;;;;4893755;29;20044;-57
2022/05/28 07:02:44;;;;;;;7.75;1.40;;;12.90;99.90;;;;;;4892734;29;20056;-57
2022/05/28 07:05:15;;;;;;;395.38;364.92;;;13.20;99.90;;;;;;4891698;29;20195;-57
2022/05/28 07:07:41;;;;;;;15.82;13.05;;;13.50;99.90;;;;;;4892804;29;20021;-57
2022/05/28 07:10:08;;;;;;;78.15;48.75;;;13.50;99.90;;;;;;4893494;29;20037;-57
2022/05/28 07:12:34;;;;;;;6.65;2.47;;;13.20;99.90;;;;;;4893828;29;20039;-57
2022/05/28 07:14:59;;;;;;;3.75;1.30;;;12.80;99.90;;;;;;4893018;29;20115;-57
2022/05/28 07:17:25;;;;;;;4.13;1.40;;;12.60;99.90;;;;;;4893206;29;20559;-56
2022/05/28 07:19:51;;;;;;;6.95;1.85;;;12.50;99.90;;;;;;4894817;29;20028;-57
2022/05/28 07:22:17;;;;;;;6.75;1.50;;;12.30;99.90;;;;;;4895215;29;20497;-57
2022/05/28 07:24:43;;;;;;;5.47;1.90;;;12.30;99.90;;;;;;4892910;29;20079;-57
2022/05/28 07:27:11;;;;;;;8.65;3.78;;;12.30;99.90;;;;;;4889273;29;20579;-57
2022/05/28 07:29:37;;;;;;;60.13;55.55;;;12.30;99.90;;;;;;4894649;29;20029;-57
2022/05/28 07:32:03;;;;;;;599.90;541.05;;;12.70;99.90;;;;;;4892562;29;20041;-56
2022/05/28 07:34:29;;;;;;;602.47;549.83;;;13.10;99.90;;;;;;4878234;29;20029;-57
2022/05/28 07:36:55;;;;;;;634.17;574.95;;;13.30;99.90;;;;;;4892920;29;20039;-56
2022/05/28 07:39:20;;;;;;;759.55;575.05;;;13.80;99.90;;;;;;4892651;29;20099;-56
2022/05/28 07:41:46;;;;;;;851.25;592.30;;;13.90;99.90;;;;;;4892485;29;20036;-58
2022/05/28 07:44:12;;;;;;;630.25;571.95;;;13.70;99.90;;;;;;4892742;29;20409;-57
2022/05/28 07:46:37;;;;;;;620.30;562.03;;;13.40;99.90;;;;;;4892966;29;20032;-57
2022/05/28 07:49:04;;;;;;;599.17;541.17;;;12.60;99.90;;;;;;4879806;29;20025;-57
2022/05/28 07:51:30;;;;;;;607.50;543.92;;;12.40;99.90;;;;;;4893114;29;20044;-57
2022/05/28 07:53:56;;;;;;;632.60;542.92;;;12.40;99.90;;;;;;4876699;29;20037;-56
2022/05/28 07:56:23;;;;;;;579.95;527.70;;;12.50;99.90;;;;;;4892620;29;20120;-56
2022/05/28 07:58:50;;;;;;;624.88;550.67;;;12.70;99.90;;;;;;4893174;29;20227;-56
2022/05/28 08:01:21;;;;;;;611.60;537.83;;;12.90;99.90;;;;;;4895115;29;20481;-56
2022/05/28 08:03:47;;;;;;;615.60;551.03;;;13.10;99.90;;;;;;4892216;29;20089;-56
2022/05/28 08:06:13;;;;;;;787.03;562.10;;;13.40;99.90;;;;;;4892727;29;20032;-57
2022/05/28 08:08:39;;;;;;;828.05;556.13;;;13.80;99.90;;;;;;4892871;29;20500;-56
2022/05/28 08:11:04;;;;;;;633.55;571.95;;;14.10;99.90;;;;;;4893276;29;20037;-56
2022/05/28 08:13:30;;;;;;;701.15;562.92;;;14.50;99.90;;;;;;4892237;29;20705;-56
2022/05/28 08:15:56;;;;;;;717.15;579.13;;;14.20;99.90;;;;;;4892062;29;20032;-57
2022/05/28 08:18:24;;;;;;;875.40;586.50;;;14.40;99.90;;;;;;4894352;29;20035;-57
2022/05/28 08:23:34;;;;;;;946.58;606.53;;;14.70;99.90;;;;;;4892006;29;20413;-56
2022/05/28 08:26:00;;;;;;;997.13;607.90;;;14.50;99.90;;;;;;4891613;29;20029;-57
2022/05/28 08:28:26;;;;;;;1030.80;613.13;;;14.40;99.90;;;;;;4892129;29;20039;-57
2022/05/28 08:30:52;;;;;;;1030.68;612.88;;;14.30;99.90;;;;;;4882402;29;20043;-56
2022/05/28 08:33:19;;;;;;;1228.35;636.90;;;14.10;99.90;;;;;;4890209;29;20079;-56
2022/05/28 08:35:46;;;;;;;1207.55;627.38;;;13.70;99.90;;;;;;4891601;29;20029;-57
2022/05/28 08:38:14;;;;;;;1242.63;636.67;;;14.30;99.90;;;;;;4892053;29;20029;-56
2022/05/28 08:40:51;;;;;;;1182.90;657.13;;;15.10;99.40;;;;;;4892758;29;20032;-57
2022/05/28 08:43:18;;;;;;;1272.40;658.33;;;15.90;97.30;;;;;;4894171;29;20024;-57
2022/05/28 08:45:48;;;;;;;1337.13;662.97;;;16.50;95.70;;;;;;4891458;29;20048;-57
2022/05/28 08:48:17;;;;;;;1352.45;670.95;;;16.00;97.00;;;;;;4891662;29;20040;-56
2022/05/28 08:51:00;;;;;;;1354.65;662.15;;;16.30;96.10;;;;;;4889172;29;20642;-57
2022/05/28 08:53:31;;;;;;;1351.00;684.33;;;16.70;94.60;;;;;;4891387;29;20354;-57
2022/05/28 08:55:58;;;;;;;1388.45;700.70;;;17.00;94.80;;;;;;4887096;29;20041;-57
2022/05/28 08:58:26;;;;;;;1392.40;719.65;;;17.30;93.70;;;;;;4890927;29;20021;-57
2022/05/28 09:00:59;;;;;;;1421.90;715.67;;;17.10;94.00;;;;;;4873510;29;20084;-57
2022/05/28 09:03:29;;;;;;;1389.18;702.47;;;17.10;94.10;;;;;;4889093;29;20048;-57
2022/05/28 09:06:01;;;;;;;1282.97;686.30;;;16.70;93.80;;;;;;4888148;29;20473;-56
2022/05/28 09:08:33;;;;;;;1391.80;693.05;;;17.00;94.60;;;;;;4891158;29;20024;-57
2022/05/28 09:11:05;;;;;;;1427.57;701.95;;;17.70;93.00;;;;;;4890040;29;20048;-56
2022/05/28 09:13:43;;;;;;;1389.28;708.08;;;18.10;93.30;;;;;;4887792;29;20104;-57
2022/05/28 09:16:29;;;;;;;1426.45;713.25;;;18.60;91.00;;;;;;4890831;29;20067;-57
2022/05/28 09:18:59;;;;;;;1267.20;711.92;;;17.90;93.10;;;;;;4891000;29;20080;-57
2022/05/28 09:21:25;;;;;;;1301.85;698.95;;;17.90;92.10;;;;;;4893178;29;20017;-57
2022/05/28 09:23:57;;;;;;;1352.15;701.50;;;16.50;92.30;;;;;;4892996;29;20096;-57
2022/05/28 09:26:30;;;;;;;1315.93;680.20;;;15.90;92.40;;;;;;4891391;29;20056;-57
2022/05/28 09:29:23;;;;;;;1427.63;676.17;;;15.50;92.70;;;;;;4890400;29;20768;-57
2022/05/28 09:32:10;;;;;;;1146.28;666.00;;;15.00;93.90;;;;;;4890280;29;20465;-57
2022/05/28 09:34:54;;;;;;;1316.43;664.47;;;15.70;95.20;;;;;;4887738;29;20035;-56
2022/05/28 09:37:42;;;;;;;1319.47;659.92;;;16.70;94.50;;;;;;4888703;29;20037;-57
2022/05/28 09:40:23;;;;;;;1348.22;645.70;;;16.20;94.70;;;;;;4888237;29;20047;-57
2022/05/28 09:43:04;;;;;;;;;;;15.60;93.80;;;;;;4891081;29;20128;-57
2022/05/28 09:45:48;;;;;;;1326.32;635.50;;;15.70;94.40;;;;;;4889047;29;19911;-57
2022/05/28 09:48:23;;;;;;;1408.45;651.92;;;15.90;94.20;;;;;;4888122;29;20029;-57
2022/05/28 09:50:49;;;;;;;1409.13;678.22;;;17.40;92.70;;;;;;4889481;29;20660;-58
2022/05/28 09:56:13;;;;;;;1419.00;692.10;;;18.80;89.10;;;;;;4889360;29;20087;-57
2022/05/28 09:58:40;;;;;;;1251.95;682.38;;;19.70;86.60;;;;;;4890255;29;20036;-57
2022/05/28 10:01:26;;;;;;;1256.20;697.80;;;19.80;86.70;;;;;;4890694;29;20059;-57
2022/05/28 10:06:47;;;;;;;1260.73;682.80;;;17.90;88.10;;;;;;4888920;29;20064;-57
2022/05/28 10:09:25;;;;;;;1182.53;682.85;;;16.50;91.70;;;;;;4890566;29;20033;-56
2022/05/28 10:11:59;;;;;;;1302.55;665.60;;;16.50;92.30;;;;;;4888676;29;20037;-56
2022/05/28 10:14:28;;;;;;;1222.13;644.42;;;15.60;92.80;;;;;;4890487;29;20113;-57
2022/05/28 10:17:01;;;;;;;1255.75;648.30;;;15.50;93.70;;;;;;4891990;29;20037;-57
2022/05/28 10:19:33;;;;;;;1207.47;644.08;;;15.90;94.20;;;;;;4890077;29;20064;-57
2022/05/28 10:22:02;;;;;;;1168.53;658.97;;;17.30;92.70;;;;;;4876013;29;20392;-57
2022/05/28 10:24:36;;;;;;;1269.15;667.60;;;18.00;91.70;;;;;;4877144;29;20036;-56
2022/05/28 10:27:02;;;;;;;1291.53;679.45;;;18.20;91.60;;;;;;4889910;29;20040;-57
2022/05/28 10:29:42;;;;;;;1215.25;675.22;;;18.30;91.60;;;;;;4893705;29;20084;-57
2022/05/28 10:32:30;;;;;;;1336.90;714.13;;;18.10;90.20;;;;;;4892653;29;20059;-56
2022/05/28 10:35:27;;;;;;;1298.15;717.42;;;19.30;86.10;;;;;;4890038;29;20029;-57
2022/05/28 10:37:53;;;;;;;1353.03;733.30;;;20.00;87.80;;;;;;4880156;29;20049;-57
2022/05/28 10:40:23;;;;;;;1328.43;712.28;;;18.80;86.90;;;;;;4893302;29;20028;-57
2022/05/28 10:42:52;;;;;;;;;;;18.00;90.10;;;;;;4895211;29;20389;-57
2022/05/28 10:45:20;;;;;;;1317.90;699.58;;;17.00;90.80;;;;;;4895968;29;20286;-57
2022/05/28 10:47:48;;;;;;;1322.70;692.90;;;17.10;91.10;;;;;;4893523;29;20540;-56
2022/05/28 10:50:23;;;;;;;1340.03;700.45;;;17.00;91.70;;;;;;4893260;29;20043;-57
2022/05/28 10:52:55;;;;;;;1257.78;684.80;;;17.00;91.90;;;;;;4894054;29;20104;-57
2022/05/28 10:55:28;;;;;;;1186.85;670.47;;;16.30;92.40;;;;;;4878939;29;20025;-57
2022/05/28 10:58:05;;;;;;;1367.10;711.00;;;17.10;92.50;;;;;;4889306;29;20116;-57
2022/05/28 11:00:38;;;;;;;1327.47;691.95;;;18.20;91.20;;;;;;4875505;29;20035;-56
2022/05/28 11:03:30;;;;;;;1398.40;732.30;;;19.10;89.20;;;;;;4886957;29;20056;-57
2022/05/28 11:06:26;;;;;;;1398.38;739.65;;;19.80;85.60;;;;;;4892363;29;20037;-56
2022/05/28 11:09:12;;;;;;;1359.63;723.45;;;19.60;83.00;;;;;;4891201;29;20028;-57
2022/05/28 11:11:47;;;;;;;1367.55;719.90;;;19.20;83.50;;;;;;4889173;29;20036;-57
2022/05/28 11:14:34;;;;;;;1381.70;730.55;;;19.30;85.20;;;;;;4892755;29;20536;-58
2022/05/28 11:17:14;;;;;;;1384.32;718.13;;;18.60;83.10;;;;;;4891268;29;20024;-57
2022/05/28 11:19:58;;;;;;;1375.45;706.13;;;17.40;84.60;;;;;;4892762;29;20119;-57
2022/05/28 11:22:53;;;;;;;1402.38;722.85;;;17.20;85.80;;;;;;4893603;29;20024;-57
2022/05/28 11:25:56;;;;;;;1414.05;725.50;;;18.90;84.40;;;;;;4892445;29;20041;-57
2022/05/28 11:28:56;;;;;;;1406.32;723.30;;;19.00;81.90;;;;;;4890226;29;20067;-57
2022/05/28 11:31:56;;;;;;;1335.40;728.75;;;19.20;85.30;;;;;;4891815;29;20028;-57
2022/05/28 11:34:29;;;;;;;1322.00;718.90;;;19.30;86.40;;;;;;4891115;29;20043;-57
2022/05/28 11:37:17;;;;;;;1382.53;742.72;;;18.90;87.00;;;;;;4877462;29;20053;-57
2022/05/28 11:39:50;;;;;;;1377.65;749.75;;;20.40;87.10;;;;;;4892022;29;20036;-57
2022/05/28 11:42:44;;;;;;;1432.13;780.13;;;21.30;84.20;;;;;;4878254;29;20036;-57
2022/05/28 11:45:40;;;;;;;1418.13;761.40;;;20.80;83.10;;;;;;4890524;29;20591;-57
2022/05/28 11:48:28;;;;;;;1144.05;764.13;;;19.60;83.90;;;;;;4885184;29;20047;-57
2022/05/28 11:51:28;;;;;;;1075.85;765.60;;;19.30;82.90;;;;;;4891058;29;20072;-57
2022/05/28 11:54:07;;;;;;;1315.68;723.58;;;19.50;83.60;;;;;;4891670;29;20052;-57
2022/05/28 11:56:33;;;;;;;1282.97;726.30;;;20.00;82.90;;;;;;4891926;29;20024;-56
2022/05/28 11:59:04;;;;;;;1247.72;712.83;;;20.50;84.90;;;;;;4890951;29;20499;-58
2022/05/28 12:01:37;;;;;;;991.33;800.45;;;20.20;84.90;;;;;;4888337;29;20028;-56
2022/05/28 12:04:05;;;;;;;1080.85;679.47;;;19.50;85.20;;;;;;4891105;29;20505;-57
2022/05/28 12:06:46;;;;;;;1082.88;687.15;;;20.10;85.10;;;;;;4893995;29;20116;-56
2022/05/28 12:09:15;;;;;;;797.55;694.53;;;19.90;84.60;;;;;;4888848;29;20045;-57
2022/05/28 12:11:46;;;;;;;687.35;634.65;;;19.30;86.20;;;;;;4891329;29;20056;-57
2022/05/28 12:14:32;;;;;;;428.75;395.73;;;18.70;87.80;;;;;;4892100;29;20021;-57
2022/05/28 12:17:12;;;;;;;47.55;42.97;;;19.10;86.50;;;;;;4891650;29;20031;-57
2022/05/28 12:19:45;;;;;;;;;;;20.60;81.60;;;;;;4891961;29;20026;-57
2022/05/28 12:22:32;;;;;;;6.95;1.48;;;21.70;79.80;;;;;;4890694;29;19918;-57
2022/05/28 12:25:06;;;;;;;5.90;1.40;;;21.90;79.40;;;;;;4889307;29;20079;-57
2022/05/28 12:27:44;;;;;;;813.15;708.17;;;22.60;77.40;;;;;;4890819;29;20020;-58
2022/05/28 12:30:29;;;;;;;116.90;107.47;;;22.40;74.60;;;;;;4890799;29;20040;-56
2022/05/28 12:32:57;;;;;;;22.60;20.48;;;21.00;78.60;;;;;;4890658;29;20056;-57
2022/05/28 12:35:51;;;;;;;41.20;37.65;;;20.30;79.40;;;;;;4890055;29;20049;-57
2022/05/28 12:38:37;;;;;;;74.68;68.18;;;19.00;82.10;;;;;;4889928;29;20481;-57
2022/05/28 12:41:03;;;;;;;61.80;56.40;;;18.90;82.50;;;;;;4888299;29;20031;-57
2022/05/28 12:43:33;;;;;;;87.40;79.75;;;19.60;80.60;;;;;;4891616;29;20047;-57
2022/05/28 12:46:33;;;;;;;221.73;203.43;;;19.10;80.60;;;;;;4893035;29;20092;-57
2022/05/28 12:49:04;;;;;;;;;;;18.00;80.70;;;;;;4892209;29;20420;-57
2022/05/28 12:51:45;;;;;;;40.63;37.40;;;18.60;81.50;;;;;;4890751;29;19915;-56
2022/05/28 12:54:23;;;;;;;34.17;31.33;;;19.30;80.20;;;;;;4888651;29;20029;-57
2022/05/28 12:56:49;;;;;;;97.70;89.38;;;19.30;79.60;;;;;;4890590;29;20029;-57